sensor_id;sensor_type;location;lat;lon;timestamp;pressure;altitude;pressure_sealevel;temperature;humidity
41140;BME280;26881;48.784;9.192;2022-08-01T00:01:40;98606.94;;;23.26;45.44
41140;BME280;26881;48.784;9.192;2022-08-01T00:07:01;98600.31;;;23.22;45.84
41140;BME280;26881;48.784;9.192;2022-08-01T00:12:23;98607.66;;;23.20;46.12
41140;BME280;26881;48.784;9.192;2022-08-01T00:17:45;98598.97;;;23.18;46.39
41140;BME280;26881;48.784;9.192;2022-08-01T00:23:07;98606.63;;;23.21;46.04
41140;BME280;26881;48.784;9.192;2022-08-01T00:28:29;98615.31;;;23.23;45.49
41140;BME280;26881;48.784;9.192;2022-08-01T00:33:50;98612.63;;;23.23;45.69
41140;BME280;26881;48.784;9.192;2022-08-01T00:39:12;98619.00;;;23.14;46.51
41140;BME280;26881;48.784;9.192;2022-08-01T00:44:35;98625.03;;;23.00;47.30
41140;BME280;26881;48.784;9.192;2022-08-01T00:49:57;98618.97;;;22.98;46.80
41140;BME280;26881;48.784;9.192;2022-08-01T00:55:19;98625.66;;;22.85;47.51
41140;BME280;26881;48.784;9.192;2022-08-01T01:00:41;98630.19;;;22.85;47.16
41140;BME280;26881;48.784;9.192;2022-08-01T01:06:42;98627.03;;;22.73;48.14
41140;BME280;26881;48.784;9.192;2022-08-01T01:12:15;98629.00;;;22.71;47.95
41140;BME280;26881;48.784;9.192;2022-08-01T01:17:46;98632.34;;;22.65;48.58
41140;BME280;26881;48.784;9.192;2022-08-01T01:28:57;98639.00;;;22.52;49.01
41140;BME280;26881;48.784;9.192;2022-08-01T01:34:22;98640.34;;;22.57;49.33
41140;BME280;26881;48.784;9.192;2022-08-01T01:39:46;98643.00;;;22.57;49.04
41140;BME280;26881;48.784;9.192;2022-08-01T01:45:15;98643.00;;;22.57;49.78
41140;BME280;26881;48.784;9.192;2022-08-01T01:50:38;98654.66;;;22.47;49.98
41140;BME280;26881;48.784;9.192;2022-08-01T01:56:02;98649.31;;;22.47;49.98
41140;BME280;26881;48.784;9.192;2022-08-01T02:01:27;98649.13;;;22.33;50.44
41140;BME280;26881;48.784;9.192;2022-08-01T02:07:14;98644.81;;;22.32;50.44
41140;BME280;26881;48.784;9.192;2022-08-01T02:12:41;98646.16;;;22.36;50.70
41140;BME280;26881;48.784;9.192;2022-08-01T02:18:05;98646.28;;;22.26;50.71
41140;BME280;26881;48.784;9.192;2022-08-01T02:23:31;98657.03;;;22.16;51.31
41140;BME280;26881;48.784;9.192;2022-08-01T02:28:59;98654.53;;;22.06;51.24
41140;BME280;26881;48.784;9.192;2022-08-01T02:34:25;98657.03;;;22.08;51.65
41140;BME280;26881;48.784;9.192;2022-08-01T02:39:51;98658.84;;;21.99;51.71
41140;BME280;26881;48.784;9.192;2022-08-01T02:45:18;98660.47;;;21.92;52.29
41140;BME280;26881;48.784;9.192;2022-08-01T02:50:44;98665.59;;;21.85;52.53
41140;BME280;26881;48.784;9.192;2022-08-01T02:56:07;98668.53;;;21.74;52.62
41140;BME280;26881;48.784;9.192;2022-08-01T03:01:31;98670.56;;;21.80;53.00
41140;BME280;26881;48.784;9.192;2022-08-01T03:06:54;98677.34;;;21.75;53.59
41140;BME280;26881;48.784;9.192;2022-08-01T03:12:22;98670.34;;;21.65;53.54
41140;BME280;26881;48.784;9.192;2022-08-01T03:17:46;98667.28;;;21.52;54.29
41140;BME280;26881;48.784;9.192;2022-08-01T03:23:11;98673.97;;;21.56;54.10
41140;BME280;26881;48.784;9.192;2022-08-01T03:28:33;98679.91;;;21.50;55.02
41140;BME280;26881;48.784;9.192;2022-08-01T03:33:55;98679.38;;;21.46;55.31
41140;BME280;26881;48.784;9.192;2022-08-01T03:39:18;98679.06;;;21.50;55.35
41140;BME280;26881;48.784;9.192;2022-08-01T03:44:47;98685.56;;;21.47;55.42
41140;BME280;26881;48.784;9.192;2022-08-01T03:50:10;98685.47;;;21.39;55.54
41140;BME280;26881;48.784;9.192;2022-08-01T03:55:33;98685.78;;;21.36;56.12
41140;BME280;26881;48.784;9.192;2022-08-01T04:00:58;98688.50;;;21.44;56.14
41140;BME280;26881;48.784;9.192;2022-08-01T04:06:20;98688.16;;;21.21;58.37
41140;BME280;26881;48.784;9.192;2022-08-01T04:11:42;98690.88;;;21.03;59.94
41140;BME280;26881;48.784;9.192;2022-08-01T04:17:04;98692.94;;;20.91;60.86
41140;BME280;26881;48.784;9.192;2022-08-01T04:22:26;98693.22;;;20.88;61.71
41140;BME280;26881;48.784;9.192;2022-08-01T04:27:50;98698.16;;;21.01;59.96
41140;BME280;26881;48.784;9.192;2022-08-01T04:33:14;98695.75;;;20.90;62.21
41140;BME280;26881;48.784;9.192;2022-08-01T04:38:39;98706.06;;;20.93;61.64
41140;BME280;26881;48.784;9.192;2022-08-01T04:44:02;98706.28;;;20.99;61.28
41140;BME280;26881;48.784;9.192;2022-08-01T04:49:24;98715.72;;;20.94;61.26
41140;BME280;26881;48.784;9.192;2022-08-01T04:54:46;98708.63;;;21.02;59.97
41140;BME280;26881;48.784;9.192;2022-08-01T05:00:08;98698.66;;;21.04;60.71
41140;BME280;26881;48.784;9.192;2022-08-01T05:05:30;98691.00;;;21.01;61.71
41140;BME280;26881;48.784;9.192;2022-08-01T05:10:53;98686.16;;;20.97;61.53
41140;BME280;26881;48.784;9.192;2022-08-01T05:16:15;98688.81;;;20.97;61.66
41140;BME280;26881;48.784;9.192;2022-08-01T05:21:38;98691.22;;;21.08;61.62
41140;BME280;26881;48.784;9.192;2022-08-01T05:27:00;98688.47;;;21.18;61.62
41140;BME280;26881;48.784;9.192;2022-08-01T05:32:23;98694.16;;;21.23;61.49
41140;BME280;26881;48.784;9.192;2022-08-01T05:37:45;98689.66;;;21.23;61.36
41140;BME280;26881;48.784;9.192;2022-08-01T05:43:07;98699.38;;;21.33;60.83
41140;BME280;26881;48.784;9.192;2022-08-01T05:48:29;98699.47;;;21.41;60.64
41140;BME280;26881;48.784;9.192;2022-08-01T05:53:52;98704.66;;;21.42;61.40
41140;BME280;26881;48.784;9.192;2022-08-01T05:59:14;98705.84;;;21.48;62.33
41140;BME280;26881;48.784;9.192;2022-08-01T06:04:36;98704.09;;;21.65;61.41
41140;BME280;26881;48.784;9.192;2022-08-01T06:09:57;98707.53;;;21.83;61.54
41140;BME280;26881;48.784;9.192;2022-08-01T06:15:19;98698.63;;;22.01;60.46
41140;BME280;26881;48.784;9.192;2022-08-01T06:20:41;98707.47;;;22.09;60.56
41140;BME280;26881;48.784;9.192;2022-08-01T06:26:03;98706.69;;;22.17;60.82
41140;BME280;26881;48.784;9.192;2022-08-01T06:31:25;98702.66;;;22.13;61.58
41140;BME280;26881;48.784;9.192;2022-08-01T06:36:52;98702.50;;;22.15;60.93
41140;BME280;26881;48.784;9.192;2022-08-01T06:42:14;98701.16;;;22.19;61.46
41140;BME280;26881;48.784;9.192;2022-08-01T06:47:37;98705.22;;;22.23;60.20
41140;BME280;26881;48.784;9.192;2022-08-01T06:52:59;98710.88;;;22.28;60.63
41140;BME280;26881;48.784;9.192;2022-08-01T06:58:21;98706.75;;;22.34;60.07
41140;BME280;26881;48.784;9.192;2022-08-01T07:03:52;98704.94;;;22.42;59.45
41140;BME280;26881;48.784;9.192;2022-08-01T07:09:15;98700.63;;;22.49;59.35
41140;BME280;26881;48.784;9.192;2022-08-01T07:14:37;98703.13;;;22.51;59.88
41140;BME280;26881;48.784;9.192;2022-08-01T07:19:59;98707.13;;;22.63;58.74
41140;BME280;26881;48.784;9.192;2022-08-01T07:25:21;98706.34;;;22.71;59.13
41140;BME280;26881;48.784;9.192;2022-08-01T07:30:42;98705.31;;;22.72;59.14
41140;BME280;26881;48.784;9.192;2022-08-01T07:36:05;98701.31;;;22.84;61.90
41140;BME280;26881;48.784;9.192;2022-08-01T07:41:29;98689.50;;;22.95;57.90
41140;BME280;26881;48.784;9.192;2022-08-01T07:47:11;98692.69;;;23.07;57.19
41140;BME280;26881;48.784;9.192;2022-08-01T07:52:33;98687.69;;;23.12;57.22
41140;BME280;26881;48.784;9.192;2022-08-01T07:57:55;98682.13;;;23.46;58.14
41140;BME280;26881;48.784;9.192;2022-08-01T08:03:17;98686.09;;;23.59;57.36
41140;BME280;26881;48.784;9.192;2022-08-01T08:08:38;98685.13;;;23.51;56.60
41140;BME280;26881;48.784;9.192;2022-08-01T08:14:00;98692.31;;;23.51;56.48
41140;BME280;26881;48.784;9.192;2022-08-01T08:19:22;98677.97;;;23.44;56.64
41140;BME280;26881;48.784;9.192;2022-08-01T08:24:59;98679.16;;;23.41;56.88
41140;BME280;26881;48.784;9.192;2022-08-01T08:30:21;98680.59;;;23.52;56.31
41140;BME280;26881;48.784;9.192;2022-08-01T08:35:43;98683.28;;;23.60;55.45
41140;BME280;26881;48.784;9.192;2022-08-01T08:41:14;98673.22;;;23.70;55.26
41140;BME280;26881;48.784;9.192;2022-08-01T08:46:47;98688.41;;;23.70;55.03
41140;BME280;26881;48.784;9.192;2022-08-01T08:52:10;98679.09;;;23.74;54.86
41140;BME280;26881;48.784;9.192;2022-08-01T08:57:32;98680.75;;;23.75;55.02
41140;BME280;26881;48.784;9.192;2022-08-01T09:02:54;98677.38;;;23.73;54.79
41140;BME280;26881;48.784;9.192;2022-08-01T09:08:17;98679.75;;;23.76;55.43
41140;BME280;26881;48.784;9.192;2022-08-01T09:13:39;98680.91;;;23.82;54.71
41140;BME280;26881;48.784;9.192;2022-08-01T09:19:14;98677.03;;;23.84;54.70
41140;BME280;26881;48.784;9.192;2022-08-01T09:25:06;98675.84;;;23.95;54.55
41140;BME280;26881;48.784;9.192;2022-08-01T09:30:37;98679.19;;;23.97;54.23
41140;BME280;26881;48.784;9.192;2022-08-01T09:36:01;98685.34;;;23.97;54.76
41140;BME280;26881;48.784;9.192;2022-08-01T09:41:30;98684.16;;;24.00;54.30
41140;BME280;26881;48.784;9.192;2022-08-01T09:47:00;98684.00;;;24.02;54.20
41140;BME280;26881;48.784;9.192;2022-08-01T09:52:28;98688.97;;;24.13;53.55
41140;BME280;26881;48.784;9.192;2022-08-01T09:57:56;98683.72;;;24.19;52.99
41140;BME280;26881;48.784;9.192;2022-08-01T10:03:24;98680.06;;;24.21;53.58
41140;BME280;26881;48.784;9.192;2022-08-01T10:08:48;98689.19;;;24.26;53.69
41140;BME280;26881;48.784;9.192;2022-08-01T10:14:10;98680.41;;;24.17;53.72
41140;BME280;26881;48.784;9.192;2022-08-01T10:19:39;98675.25;;;24.16;53.57
41140;BME280;26881;48.784;9.192;2022-08-01T10:25:04;98663.34;;;24.27;53.00
41140;BME280;26881;48.784;9.192;2022-08-01T10:30:27;98665.13;;;24.34;52.89
41140;BME280;26881;48.784;9.192;2022-08-01T10:35:51;98652.16;;;24.46;52.22
41140;BME280;26881;48.784;9.192;2022-08-01T10:41:14;98646.63;;;24.56;51.83
41140;BME280;26881;48.784;9.192;2022-08-01T10:46:45;98655.34;;;24.73;51.19
41140;BME280;26881;48.784;9.192;2022-08-01T10:52:14;98648.75;;;24.60;51.30
41140;BME280;26881;48.784;9.192;2022-08-01T10:57:47;98646.16;;;24.52;51.77
41140;BME280;26881;48.784;9.192;2022-08-01T11:03:13;98641.38;;;24.63;51.17
41140;BME280;26881;48.784;9.192;2022-08-01T11:08:37;98627.34;;;24.84;50.22
41140;BME280;26881;48.784;9.192;2022-08-01T11:20:06;98626.97;;;24.87;49.89
41140;BME280;26881;48.784;9.192;2022-08-01T11:31:28;98607.19;;;24.73;50.15
41140;BME280;26881;48.784;9.192;2022-08-01T11:37:26;98599.03;;;24.89;49.67
41140;BME280;26881;48.784;9.192;2022-08-01T11:48:34;98598.53;;;25.38;47.86
41140;BME280;26881;48.784;9.192;2022-08-01T11:53:56;98590.53;;;25.23;48.40
41140;BME280;26881;48.784;9.192;2022-08-01T11:59:21;98593.19;;;25.23;47.83
41140;BME280;26881;48.784;9.192;2022-08-01T12:04:45;98598.72;;;25.52;47.41
41140;BME280;26881;48.784;9.192;2022-08-01T12:15:36;98566.41;;;25.38;47.78
41140;BME280;26881;48.784;9.192;2022-08-01T12:21:02;98567.16;;;25.62;46.47
41140;BME280;26881;48.784;9.192;2022-08-01T12:26:42;98552.13;;;25.46;46.35
41140;BME280;26881;48.784;9.192;2022-08-01T12:32:04;98563.03;;;25.30;47.10
41140;BME280;26881;48.784;9.192;2022-08-01T12:37:26;98568.56;;;25.28;47.25
41140;BME280;26881;48.784;9.192;2022-08-01T12:42:57;98565.22;;;25.26;48.40
41140;BME280;26881;48.784;9.192;2022-08-01T12:48:19;98567.78;;;25.49;47.86
41140;BME280;26881;48.784;9.192;2022-08-01T12:53:41;98561.09;;;25.75;47.38
41140;BME280;26881;48.784;9.192;2022-08-01T12:59:19;98557.03;;;25.79;46.40
41140;BME280;26881;48.784;9.192;2022-08-01T13:04:51;98549.56;;;25.74;46.03
41140;BME280;26881;48.784;9.192;2022-08-01T13:10:14;98548.28;;;25.70;46.46
41140;BME280;26881;48.784;9.192;2022-08-01T13:15:38;98549.81;;;25.79;46.45
41140;BME280;26881;48.784;9.192;2022-08-01T13:21:13;98550.59;;;25.88;46.34
41140;BME280;26881;48.784;9.192;2022-08-01T13:26:43;98548.41;;;25.98;46.42
41140;BME280;26881;48.784;9.192;2022-08-01T13:32:17;98531.75;;;26.03;45.80
41140;BME280;26881;48.784;9.192;2022-08-01T13:37:50;98533.16;;;25.99;45.75
41140;BME280;26881;48.784;9.192;2022-08-01T13:43:12;98536.16;;;25.89;46.21
41140;BME280;26881;48.784;9.192;2022-08-01T13:48:34;98531.25;;;25.93;46.04
41140;BME280;26881;48.784;9.192;2022-08-01T13:53:56;98533.69;;;26.09;45.75
41140;BME280;26881;48.784;9.192;2022-08-01T13:59:18;98529.13;;;26.31;45.12
41140;BME280;26881;48.784;9.192;2022-08-01T14:04:40;98523.41;;;26.34;45.19
41140;BME280;26881;48.784;9.192;2022-08-01T14:10:05;98535.31;;;26.32;45.11
41140;BME280;26881;48.784;9.192;2022-08-01T14:15:40;98529.53;;;26.28;45.08
41140;BME280;26881;48.784;9.192;2022-08-01T14:21:04;98518.88;;;26.35;45.23
41140;BME280;26881;48.784;9.192;2022-08-01T14:26:26;98509.59;;;26.59;43.89
41140;BME280;26881;48.784;9.192;2022-08-01T14:31:48;98516.91;;;26.50;44.47
41140;BME280;26881;48.784;9.192;2022-08-01T14:37:10;98510.25;;;26.39;44.22
41140;BME280;26881;48.784;9.192;2022-08-01T14:42:32;98518.47;;;26.38;44.77
41140;BME280;26881;48.784;9.192;2022-08-01T14:47:54;98519.75;;;26.42;44.89
41140;BME280;26881;48.784;9.192;2022-08-01T14:53:16;98519.22;;;26.53;44.28
41140;BME280;26881;48.784;9.192;2022-08-01T14:58:38;98523.75;;;26.53;44.54
41140;BME280;26881;48.784;9.192;2022-08-01T15:04:00;98511.66;;;26.35;44.84
41140;BME280;26881;48.784;9.192;2022-08-01T15:09:25;98519.25;;;26.32;44.90
41140;BME280;26881;48.784;9.192;2022-08-01T15:14:46;98508.19;;;26.20;44.98
41140;BME280;26881;48.784;9.192;2022-08-01T15:20:12;98508.03;;;26.21;44.91
41140;BME280;26881;48.784;9.192;2022-08-01T15:25:36;98531.06;;;26.37;44.25
41140;BME280;26881;48.784;9.192;2022-08-01T15:31:01;98516.72;;;26.23;43.90
41140;BME280;26881;48.784;9.192;2022-08-01T15:36:23;98518.09;;;26.19;44.76
41140;BME280;26881;48.784;9.192;2022-08-01T15:41:47;98515.81;;;26.16;44.94
41140;BME280;26881;48.784;9.192;2022-08-01T15:47:09;98520.78;;;26.19;43.94
41140;BME280;26881;48.784;9.192;2022-08-01T15:52:31;98539.13;;;26.16;43.91
41140;BME280;26881;48.784;9.192;2022-08-01T15:57:53;98531.91;;;26.16;43.24
41140;BME280;26881;48.784;9.192;2022-08-01T16:03:15;98522.97;;;26.09;44.00
41140;BME280;26881;48.784;9.192;2022-08-01T16:08:36;98519.66;;;26.07;43.78
41140;BME280;26881;48.784;9.192;2022-08-01T16:13:59;98527.69;;;26.07;43.77
41140;BME280;26881;48.784;9.192;2022-08-01T16:19:21;98525.75;;;26.01;44.61
41140;BME280;26881;48.784;9.192;2022-08-01T16:24:44;98532.91;;;25.94;44.81
41140;BME280;26881;48.784;9.192;2022-08-01T16:30:06;98517.06;;;25.99;43.62
41140;BME280;26881;48.784;9.192;2022-08-01T16:35:28;98528.44;;;26.01;43.95
41140;BME280;26881;48.784;9.192;2022-08-01T16:40:57;98532.53;;;25.97;43.99
41140;BME280;26881;48.784;9.192;2022-08-01T16:46:18;98532.25;;;25.92;44.19
41140;BME280;26881;48.784;9.192;2022-08-01T16:51:40;98529.47;;;25.85;44.90
41140;BME280;26881;48.784;9.192;2022-08-01T16:57:08;98535.03;;;25.83;44.43
41140;BME280;26881;48.784;9.192;2022-08-01T17:02:31;98534.41;;;25.81;44.25
41140;BME280;26881;48.784;9.192;2022-08-01T17:07:53;98541.88;;;25.86;44.32
41140;BME280;26881;48.784;9.192;2022-08-01T17:13:15;98558.25;;;25.76;45.04
41140;BME280;26881;48.784;9.192;2022-08-01T17:18:37;98557.22;;;25.77;44.70
41140;BME280;26881;48.784;9.192;2022-08-01T17:23:59;98563.59;;;25.76;44.88
41140;BME280;26881;48.784;9.192;2022-08-01T17:29:20;98573.59;;;25.68;45.49
41140;BME280;26881;48.784;9.192;2022-08-01T17:34:42;98559.28;;;25.60;45.64
41140;BME280;26881;48.784;9.192;2022-08-01T17:40:05;98559.69;;;25.57;45.62
41140;BME280;26881;48.784;9.192;2022-08-01T17:45:47;98574.25;;;25.55;45.83
41140;BME280;26881;48.784;9.192;2022-08-01T17:51:12;98590.44;;;25.47;46.35
41140;BME280;26881;48.784;9.192;2022-08-01T17:56:34;98583.44;;;25.46;45.78
41140;BME280;26881;48.784;9.192;2022-08-01T18:02:01;98585.44;;;25.43;45.87
41140;BME280;26881;48.784;9.192;2022-08-01T18:07:25;98592.38;;;25.38;46.46
41140;BME280;26881;48.784;9.192;2022-08-01T18:13:07;98600.50;;;25.30;46.90
41140;BME280;26881;48.784;9.192;2022-08-01T18:18:29;98606.41;;;25.25;47.14
41140;BME280;26881;48.784;9.192;2022-08-01T18:23:54;98604.94;;;25.22;47.06
41140;BME280;26881;48.784;9.192;2022-08-01T18:29:16;98597.91;;;25.21;46.94
41140;BME280;26881;48.784;9.192;2022-08-01T18:34:43;98608.16;;;25.18;47.21
41140;BME280;26881;48.784;9.192;2022-08-01T18:40:05;98608.19;;;25.10;47.89
41140;BME280;26881;48.784;9.192;2022-08-01T18:45:28;98611.78;;;25.02;48.27
41140;BME280;26881;48.784;9.192;2022-08-01T18:50:50;98610.03;;;24.94;48.79
41140;BME280;26881;48.784;9.192;2022-08-01T18:56:14;98611.84;;;24.94;48.08
41140;BME280;26881;48.784;9.192;2022-08-01T19:01:36;98628.28;;;24.91;48.51
41140;BME280;26881;48.784;9.192;2022-08-01T19:06:58;98633.81;;;24.89;48.85
41140;BME280;26881;48.784;9.192;2022-08-01T19:12:20;98647.25;;;24.81;49.40
41140;BME280;26881;48.784;9.192;2022-08-01T19:17:42;98644.19;;;24.69;50.89
41140;BME280;26881;48.784;9.192;2022-08-01T19:23:05;98641.44;;;24.54;52.17
41140;BME280;26881;48.784;9.192;2022-08-01T19:28:46;98645.16;;;24.45;52.46
41140;BME280;26881;48.784;9.192;2022-08-01T19:34:11;98652.88;;;24.40;52.29
41140;BME280;26881;48.784;9.192;2022-08-01T19:39:33;98668.56;;;24.43;50.60
41140;BME280;26881;48.784;9.192;2022-08-01T19:44:55;98677.59;;;24.42;51.31
41140;BME280;26881;48.784;9.192;2022-08-01T19:50:17;98686.34;;;24.36;50.49
41140;BME280;26881;48.784;9.192;2022-08-01T19:55:40;98704.38;;;24.34;51.08
41140;BME280;26881;48.784;9.192;2022-08-01T20:01:08;98713.91;;;24.28;51.04
41140;BME280;26881;48.784;9.192;2022-08-01T20:06:31;98731.88;;;24.11;55.94
41140;BME280;26881;48.784;9.192;2022-08-01T20:11:53;98730.97;;;23.88;59.47
41140;BME280;26881;48.784;9.192;2022-08-01T20:17:15;98749.34;;;23.66;61.72
41140;BME280;26881;48.784;9.192;2022-08-01T20:22:40;98747.19;;;23.53;62.74
41140;BME280;26881;48.784;9.192;2022-08-01T20:28:03;98749.03;;;23.53;64.49
41140;BME280;26881;48.784;9.192;2022-08-01T20:33:27;98742.88;;;23.44;65.25
41140;BME280;26881;48.784;9.192;2022-08-01T20:38:51;98741.38;;;23.42;64.60
41140;BME280;26881;48.784;9.192;2022-08-01T20:44:13;98740.38;;;23.43;64.62
41140;BME280;26881;48.784;9.192;2022-08-01T20:49:37;98749.03;;;23.28;65.84
41140;BME280;26881;48.784;9.192;2022-08-01T20:54:59;98747.91;;;23.23;66.26
41140;BME280;26881;48.784;9.192;2022-08-01T21:00:21;98756.56;;;23.17;66.93
41140;BME280;26881;48.784;9.192;2022-08-01T21:05:50;98772.84;;;22.97;67.76
41140;BME280;26881;48.784;9.192;2022-08-01T21:11:20;98792.41;;;23.06;67.63
41140;BME280;26881;48.784;9.192;2022-08-01T21:16:45;98793.25;;;23.06;66.67
41140;BME280;26881;48.784;9.192;2022-08-01T21:22:13;98795.03;;;22.98;66.46
41140;BME280;26881;48.784;9.192;2022-08-01T21:27:38;98791.53;;;22.97;67.01
41140;BME280;26881;48.784;9.192;2022-08-01T21:33:01;98798.84;;;22.87;67.75
41140;BME280;26881;48.784;9.192;2022-08-01T21:38:23;98793.81;;;22.76;67.77
41140;BME280;26881;48.784;9.192;2022-08-01T21:43:48;98801.63;;;22.69;68.08
41140;BME280;26881;48.784;9.192;2022-08-01T21:49:11;98802.47;;;22.61;68.59
41140;BME280;26881;48.784;9.192;2022-08-01T21:54:44;98797.91;;;22.54;70.17
41140;BME280;26881;48.784;9.192;2022-08-01T22:00:15;98788.09;;;22.20;74.20
41140;BME280;26881;48.784;9.192;2022-08-01T22:05:49;98797.19;;;22.09;74.55
41140;BME280;26881;48.784;9.192;2022-08-01T22:11:13;98785.78;;;21.91;76.12
41140;BME280;26881;48.784;9.192;2022-08-01T22:16:36;98775.13;;;21.64;77.81
41140;BME280;26881;48.784;9.192;2022-08-01T22:22:02;98783.59;;;21.60;79.56
41140;BME280;26881;48.784;9.192;2022-08-01T22:27:44;98797.31;;;21.47;77.00
41140;BME280;26881;48.784;9.192;2022-08-01T22:33:26;98800.94;;;21.46;76.41
41140;BME280;26881;48.784;9.192;2022-08-01T22:38:49;98807.09;;;21.46;74.95
41140;BME280;26881;48.784;9.192;2022-08-01T22:44:13;98800.97;;;21.10;75.05
41140;BME280;26881;48.784;9.192;2022-08-01T22:49:41;98804.59;;;20.91;76.61
41140;BME280;26881;48.784;9.192;2022-08-01T22:55:10;98811.97;;;20.97;76.34
41140;BME280;26881;48.784;9.192;2022-08-01T23:00:34;98815.47;;;20.98;74.44
41140;BME280;26881;48.784;9.192;2022-08-01T23:06:02;98820.38;;;20.93;73.84
41140;BME280;26881;48.784;9.192;2022-08-01T23:11:25;98818.09;;;20.80;74.48
41140;BME280;26881;48.784;9.192;2022-08-01T23:16:49;98815.78;;;20.67;75.58
41140;BME280;26881;48.784;9.192;2022-08-01T23:22:11;98805.00;;;20.69;76.37
41140;BME280;26881;48.784;9.192;2022-08-01T23:27:39;98800.03;;;20.56;77.73
41140;BME280;26881;48.784;9.192;2022-08-01T23:33:21;98778.69;;;20.48;78.38
41140;BME280;26881;48.784;9.192;2022-08-01T23:38:43;98776.69;;;20.59;78.27
41140;BME280;26881;48.784;9.192;2022-08-01T23:44:05;98777.16;;;20.73;77.68
41140;BME280;26881;48.784;9.192;2022-08-01T23:49:30;98784.34;;;20.62;78.41
41140;BME280;26881;48.784;9.192;2022-08-01T23:54:52;98776.53;;;20.61;78.67
